Time;durP1;ratioP1;P1;durP2;ratioP2;P2;SDS_P1;SDS_P2;PMS_P1;PMS_P2;Temp;Humidity;BMP_temperature;BMP_pressure;BME280_temperature;BME280_humidity;BME280_pressure;Samples;Min_cycle;Max_cycle;Signal;HPM_P1;HPM_P2
2023/09/09 00:01:21;;;;;;;;;;;;;;;23.27;36.19;101281.16;7396237;19;1849;-39
2023/09/09 00:03:51;;;;;;;;;;;;;;;23.20;36.45;101282.78;7398532;19;1448;-39
2023/09/09 00:06:20;;;;;;;;;;;;;;;23.22;36.61;101286.19;7399336;19;1392;-40
2023/09/09 00:08:48;;;;;;;;;;;;;;;23.19;36.50;101283.78;7399321;19;1785;-39
2023/09/09 00:11:16;;;;;;;;;;;;;;;23.22;36.56;101295.13;7398847;19;1851;-40
2023/09/09 00:13:45;;;;;;;;;;;;;;;23.23;36.67;101274.38;7398359;19;1720;-40
2023/09/09 00:16:14;;;;;;;;;;;;;;;23.22;36.46;101296.97;7398422;19;1481;-39
2023/09/09 00:18:42;;;;;;;;;;;;;;;23.07;36.57;101288.53;7398858;19;1473;-39
2023/09/09 00:21:14;;;;;;;;;;;;;;;23.02;36.80;101298.94;7383166;19;1846;-39
2023/09/09 00:23:42;;;;;;;;;;;;;;;22.96;36.63;101281.47;7399739;19;1669;-40
2023/09/09 00:26:10;;;;;;;;;;;;;;;22.91;36.58;101285.59;7398517;19;1860;-39
2023/09/09 00:28:39;;;;;;;;;;;;;;;22.99;36.50;101294.63;7397624;19;1876;-39
2023/09/09 00:31:07;;;;;;;;;;;;;;;23.00;36.80;101285.56;7396859;19;1496;-39
2023/09/09 00:33:36;;;;;;;;;;;;;;;23.06;36.64;101302.16;7398120;19;1795;-39
2023/09/09 00:36:04;;;;;;;;;;;;;;;23.02;36.83;101288.97;7397136;19;1504;-39
2023/09/09 00:38:35;;;;;;;;;;;;;;;23.00;36.74;101290.94;7396192;19;1585;-39
2023/09/09 00:41:14;;;;;;;;;;;;;;;23.00;36.86;101295.50;7397874;19;1853;-40
2023/09/09 00:43:42;;;;;;;;;;;;;;;23.05;36.82;101300.47;7398175;19;1729;-39
2023/09/09 00:46:11;;;;;;;;;;;;;;;23.12;36.71;101288.94;7397418;19;1859;-40
2023/09/09 00:48:39;;;;;;;;;;;;;;;23.02;36.67;101294.38;7396973;19;1340;-39
2023/09/09 00:51:07;;;;;;;;;;;;;;;22.92;36.93;101289.97;7396597;19;2033;-40
2023/09/09 00:53:38;;;;;;;;;;;;;;;22.91;37.01;101280.19;7396468;19;1660;-39
2023/09/09 00:56:08;;;;;;;;;;;;;;;22.78;36.94;101286.78;7398349;19;1653;-39
2023/09/09 00:58:36;;;;;;;;;;;;;;;22.71;36.76;101287.53;7398727;19;1514;-40
2023/09/09 01:01:05;;;;;;;;;;;;;;;22.73;36.93;101290.91;7396980;19;1947;-39
2023/09/09 01:03:34;;;;;;;;;;;;;;;22.82;37.02;101277.41;7396631;19;1872;-39
2023/09/09 01:06:03;;;;;;;;;;;;;;;22.81;36.76;101285.63;7395811;19;2012;-39
2023/09/09 01:08:32;;;;;;;;;;;;;;;22.72;36.68;101282.00;7397242;19;1562;-39
2023/09/09 01:11:03;;;;;;;;;;;;;;;22.68;36.94;101280.59;7396020;19;2564;-39
2023/09/09 01:13:32;;;;;;;;;;;;;;;22.69;36.81;101297.59;7395319;19;1742;-39
2023/09/09 01:16:00;;;;;;;;;;;;;;;22.64;36.77;101273.75;7396163;19;1597;-39
2023/09/09 01:18:30;;;;;;;;;;;;;;;22.68;36.96;101285.09;7398638;19;1033;-40
2023/09/09 01:21:02;;;;;;;;;;;;;;;22.67;36.96;101284.25;7378320;19;1856;-39
2023/09/09 01:23:33;;;;;;;;;;;;;;;22.70;37.16;101277.72;7395881;19;1849;-39
2023/09/09 01:26:01;;;;;;;;;;;;;;;22.78;37.03;101280.53;7395684;19;1860;-39
2023/09/09 01:28:30;;;;;;;;;;;;;;;22.80;36.78;101286.63;7396538;19;1755;-39
2023/09/09 01:30:58;;;;;;;;;;;;;;;22.74;36.82;101289.91;7396556;19;1757;-39
2023/09/09 01:33:26;;;;;;;;;;;;;;;22.84;37.06;101283.50;7395051;19;1612;-39
2023/09/09 01:35:55;;;;;;;;;;;;;;;22.76;37.03;101294.19;7394720;19;1813;-39
2023/09/09 01:38:23;;;;;;;;;;;;;;;22.60;36.93;101275.94;7392767;19;1853;-40
2023/09/09 01:40:54;;;;;;;;;;;;;;;22.50;36.90;101283.19;7394275;19;1861;-39
2023/09/09 01:43:22;;;;;;;;;;;;;;;22.42;37.07;101288.44;7392672;19;1987;-39
2023/09/09 01:45:51;;;;;;;;;;;;;;;22.56;37.00;101292.50;7396381;19;1478;-39
2023/09/09 01:48:19;;;;;;;;;;;;;;;22.57;36.60;101294.22;7396031;19;1947;-40
2023/09/09 01:50:48;;;;;;;;;;;;;;;22.51;36.83;101295.66;7394929;19;1805;-40
2023/09/09 01:53:16;;;;;;;;;;;;;;;22.47;36.81;101298.81;7396436;19;1685;-40
2023/09/09 01:55:45;;;;;;;;;;;;;;;22.43;36.90;101296.38;7394942;19;1450;-41
2023/09/09 01:58:15;;;;;;;;;;;;;;;22.39;37.14;101313.00;7395090;19;1970;-41
2023/09/09 02:00:44;;;;;;;;;;;;;;;22.37;37.03;101304.22;7394683;19;1876;-41
2023/09/09 02:03:12;;;;;;;;;;;;;;;22.43;37.22;101303.63;7394060;19;1831;-40
2023/09/09 02:05:41;;;;;;;;;;;;;;;22.54;37.28;101300.78;7393796;19;1808;-40
2023/09/09 02:08:09;;;;;;;;;;;;;;;22.53;37.09;101293.66;7395337;19;1733;-40
2023/09/09 02:10:37;;;;;;;;;;;;;;;22.49;37.13;101292.25;7395056;19;1539;-40
2023/09/09 02:13:06;;;;;;;;;;;;;;;22.51;37.23;101290.28;7395404;19;1800;-40
2023/09/09 02:15:37;;;;;;;;;;;;;;;22.59;37.39;101298.47;7397162;19;1032;-40
2023/09/09 02:18:06;;;;;;;;;;;;;;;22.64;37.31;101290.81;7394937;19;1900;-40
2023/09/09 02:20:34;;;;;;;;;;;;;;;22.78;37.16;101296.69;7381319;19;1861;-41
2023/09/09 02:23:03;;;;;;;;;;;;;;;22.82;37.09;101290.03;7395246;19;1828;-40
2023/09/09 02:25:31;;;;;;;;;;;;;;;22.82;37.07;101293.59;7394559;19;1506;-40
2023/09/09 02:27:59;;;;;;;;;;;;;;;22.74;37.08;101296.16;7393817;19;1757;-40
2023/09/09 02:30:27;;;;;;;;;;;;;;;22.70;36.88;101291.19;7393709;19;1393;-40
2023/09/09 02:32:59;;;;;;;;;;;;;;;22.72;37.03;101300.00;7392925;19;1508;-40
2023/09/09 02:35:27;;;;;;;;;;;;;;;22.64;37.00;101277.34;7391630;19;1768;-40
2023/09/09 02:37:56;;;;;;;;;;;;;;;22.61;37.08;101296.47;7394495;19;1465;-41
2023/09/09 02:40:24;;;;;;;;;;;;;;;22.63;36.94;101293.66;7394858;19;1379;-40
2023/09/09 02:42:52;;;;;;;;;;;;;;;22.56;36.89;101296.09;7392856;19;1847;-40
2023/09/09 02:45:20;;;;;;;;;;;;;;;22.47;37.00;101296.94;7394999;19;1264;-40
2023/09/09 02:47:49;;;;;;;;;;;;;;;22.47;37.04;101282.63;7393810;19;1686;-40
2023/09/09 02:50:20;;;;;;;;;;;;;;;22.41;37.20;101284.91;7393552;19;1281;-40
2023/09/09 02:52:50;;;;;;;;;;;;;;;22.47;37.29;101298.81;7390749;19;1960;-40
2023/09/09 02:55:18;;;;;;;;;;;;;;;22.43;36.97;101309.03;7391267;19;1960;-40
2023/09/09 02:57:49;;;;;;;;;;;;;;;22.43;37.32;101298.25;7392273;19;1392;-40
2023/09/09 03:00:17;;;;;;;;;;;;;;;22.56;37.20;101298.78;7391525;19;1543;-41
2023/09/09 03:02:46;;;;;;;;;;;;;;;22.61;37.53;101263.28;7390600;19;1849;-40
2023/09/09 03:05:15;;;;;;;;;;;;;;;22.55;37.22;101280.91;7392740;19;1649;-40
2023/09/09 03:07:48;;;;;;;;;;;;;;;22.43;37.65;101292.84;7397229;19;1532;-40
2023/09/09 03:10:16;;;;;;;;;;;;;;;22.47;37.54;101294.25;7400912;19;1633;-40
2023/09/09 03:12:44;;;;;;;;;;;;;;;22.50;37.31;101299.38;7398796;19;1539;-40
2023/09/09 03:15:12;;;;;;;;;;;;;;;22.40;37.10;101288.59;7399066;19;1499;-40
2023/09/09 03:17:41;;;;;;;;;;;;;;;22.28;37.06;101292.44;7398548;19;1456;-40
2023/09/09 03:20:10;;;;;;;;;;;;;;;22.20;37.34;101287.75;7400286;19;1342;-40
2023/09/09 03:22:38;;;;;;;;;;;;;;;22.20;37.57;101277.00;7382718;19;1837;-40
2023/09/09 03:25:09;;;;;;;;;;;;;;;22.13;37.43;101286.63;7399482;19;1757;-40
2023/09/09 03:27:38;;;;;;;;;;;;;;;22.11;37.49;101283.22;7397686;19;1362;-40
2023/09/09 03:30:09;;;;;;;;;;;;;;;22.23;37.22;101313.56;7400634;19;1846;-40
2023/09/09 03:32:37;;;;;;;;;;;;;;;22.20;37.65;101270.72;7399575;19;1369;-40
2023/09/09 03:35:06;;;;;;;;;;;;;;;22.17;37.34;101306.91;7399428;19;1706;-40
2023/09/09 03:37:34;;;;;;;;;;;;;;;21.92;37.44;101285.94;7400424;19;1381;-40
2023/09/09 03:40:03;;;;;;;;;;;;;;;21.33;38.75;101283.16;7397873;19;1349;-37
2023/09/09 03:42:34;;;;;;;;;;;;;;;21.69;38.54;101288.06;7393573;19;1836;-37
2023/09/09 03:45:02;;;;;;;;;;;;;;;21.94;38.22;101289.31;7398808;19;1459;-37
2023/09/09 04:01:14;;;;;;;;;;;;;;;22.13;37.92;101292.00;7384804;19;1809;-68
2023/09/09 04:03:42;;;;;;;;;;;;;;;22.14;37.79;101292.84;7427236;19;1755;-72
2023/09/09 04:06:11;;;;;;;;;;;;;;;22.18;37.88;101292.44;7427757;19;1919;-67
2023/09/09 04:08:41;;;;;;;;;;;;;;;22.12;38.09;101290.31;7423301;19;1547;-66
2023/09/09 04:11:09;;;;;;;;;;;;;;;22.20;37.74;101289.59;7423797;19;1439;-71
2023/09/09 04:13:40;;;;;;;;;;;;;;;22.22;38.12;101307.31;7426065;19;1353;-68
2023/09/09 04:16:08;;;;;;;;;;;;;;;22.23;38.32;101294.69;7425275;19;1468;-67
2023/09/09 04:18:39;;;;;;;;;;;;;;;22.31;38.09;101299.41;7426073;19;1435;-66
2023/09/09 04:21:08;;;;;;;;;;;;;;;22.87;37.07;101279.66;7421391;19;1861;-66
2023/09/09 04:23:36;;;;;;;;;;;;;;;23.64;35.82;101274.81;7425441;19;1395;-67
2023/09/09 04:26:04;;;;;;;;;;;;;;;23.95;35.14;101296.06;7426308;19;1553;-67
2023/09/09 04:28:33;;;;;;;;;;;;;;;23.50;35.55;101278.06;7426106;19;1583;-64
2023/09/09 04:31:02;;;;;;;;;;;;;;;23.05;36.42;101292.38;7426128;19;1513;-64
2023/09/09 04:33:30;;;;;;;;;;;;;;;22.57;36.90;101284.28;7426233;19;1593;-63
2023/09/09 04:36:01;;;;;;;;;;;;;;;22.47;37.38;101294.25;7424009;19;1444;-64
2023/09/09 04:38:29;;;;;;;;;;;;;;;22.42;37.48;101296.53;7424625;19;1446;-65
2023/09/09 04:40:58;;;;;;;;;;;;;;;22.51;38.02;101294.81;7420690;19;1861;-64
2023/09/09 04:43:26;;;;;;;;;;;;;;;22.48;38.30;101290.56;7424610;19;1426;-65
2023/09/09 04:45:54;;;;;;;;;;;;;;;22.46;38.26;101303.31;7423119;19;1453;-65
2023/09/09 04:48:22;;;;;;;;;;;;;;;22.43;38.59;101299.09;7425494;19;1638;-64
2023/09/09 04:50:51;;;;;;;;;;;;;;;22.42;39.11;101293.81;7425495;19;1353;-64
2023/09/09 04:53:22;;;;;;;;;;;;;;;22.42;38.76;101307.31;7425037;19;1352;-66
2023/09/09 04:55:50;;;;;;;;;;;;;;;22.10;38.80;101297.66;7421863;19;1909;-65
2023/09/09 04:58:18;;;;;;;;;;;;;;;21.63;40.18;101295.69;7424006;19;1403;-65
2023/09/09 05:00:46;;;;;;;;;;;;;;;21.24;40.70;101317.09;7418790;19;1855;-65
2023/09/09 05:03:15;;;;;;;;;;;;;;;21.18;40.70;101309.56;7424375;19;1529;-65
2023/09/09 05:05:43;;;;;;;;;;;;;;;21.34;40.78;101305.53;7424599;19;1627;-63
2023/09/09 05:08:11;;;;;;;;;;;;;;;21.31;40.57;101298.59;7427006;19;1431;-65
2023/09/09 05:10:42;;;;;;;;;;;;;;;21.12;41.04;101304.75;7414528;19;1771;-63
2023/09/09 05:13:10;;;;;;;;;;;;;;;21.71;40.27;101313.84;7397787;19;1593;-65
2023/09/09 05:15:39;;;;;;;;;;;;;;;22.09;39.94;101309.47;7400095;19;1801;-65
2023/09/09 05:18:07;;;;;;;;;;;;;;;22.32;40.05;101295.69;7399114;19;1736;-65
2023/09/09 05:20:35;;;;;;;;;;;;;;;22.52;39.71;101310.84;7393175;19;1859;-65
2023/09/09 05:23:03;;;;;;;;;;;;;;;22.51;39.67;101306.44;7395328;19;1700;-64
2023/09/09 05:25:32;;;;;;;;;;;;;;;22.47;40.74;101310.44;7397799;19;1727;-64
2023/09/09 05:28:03;;;;;;;;;;;;;;;22.74;39.75;101311.47;7395878;19;1676;-64
2023/09/09 05:30:31;;;;;;;;;;;;;;;22.81;40.19;101299.13;7394751;19;1509;-65
2023/09/09 05:32:59;;;;;;;;;;;;;;;22.75;40.55;101305.09;7396573;19;1476;-67
2023/09/09 05:35:27;;;;;;;;;;;;;;;22.91;40.54;101301.78;7395284;19;1395;-62
2023/09/09 05:37:56;;;;;;;;;;;;;;;23.21;40.38;101295.28;7392964;19;1579;-66
2023/09/09 05:40:24;;;;;;;;;;;;;;;23.42;40.27;101301.25;7392103;19;1881;-67
2023/09/09 05:42:53;;;;;;;;;;;;;;;23.53;40.23;101288.53;7394292;19;1418;-66
2023/09/09 05:45:23;;;;;;;;;;;;;;;23.58;40.42;101289.78;7391057;19;1561;-66
2023/09/09 05:47:52;;;;;;;;;;;;;;;23.66;40.60;101297.13;7394173;19;1614;-65
2023/09/09 05:50:20;;;;;;;;;;;;;;;23.85;40.25;101301.53;7396330;19;1454;-65
2023/09/09 05:52:48;;;;;;;;;;;;;;;23.90;40.39;101309.19;7393594;19;1502;-65
2023/09/09 05:55:17;;;;;;;;;;;;;;;23.87;40.42;101288.72;7392255;19;1835;-65
2023/09/09 05:57:45;;;;;;;;;;;;;;;23.93;40.65;101300.75;7393792;19;1473;-67
2023/09/09 06:00:14;;;;;;;;;;;;;;;24.01;40.49;101306.22;7391053;19;1815;-66
2023/09/09 06:02:44;;;;;;;;;;;;;;;24.07;40.67;101299.38;7385320;19;1364;-66
2023/09/09 06:05:13;;;;;;;;;;;;;;;24.09;40.96;101313.56;7396557;19;1641;-64
2023/09/09 06:07:42;;;;;;;;;;;;;;;23.81;40.86;101246.13;7398280;19;1827;-64
2023/09/09 06:10:11;;;;;;;;;;;;;;;24.17;40.75;101314.50;7396497;19;1735;-64
2023/09/09 06:12:39;;;;;;;;;;;;;;;24.30;40.86;101313.25;7396303;19;1909;-64
2023/09/09 06:15:08;;;;;;;;;;;;;;;24.35;41.09;101313.59;7393005;19;1501;-64
2023/09/09 06:17:39;;;;;;;;;;;;;;;24.37;40.75;101309.75;7396491;19;1451;-65
2023/09/09 06:20:11;;;;;;;;;;;;;;;24.31;40.82;101317.63;7398626;19;1864;-64
2023/09/09 06:22:39;;;;;;;;;;;;;;;24.30;41.01;101299.72;7396099;19;1766;-66
2023/09/09 06:25:08;;;;;;;;;;;;;;;24.30;41.00;101332.16;7400145;19;1696;-66
2023/09/09 06:27:36;;;;;;;;;;;;;;;24.24;41.19;101320.13;7399629;19;1739;-66
2023/09/09 06:30:05;;;;;;;;;;;;;;;24.25;41.17;101315.56;7399076;19;1521;-66
2023/09/09 06:32:33;;;;;;;;;;;;;;;24.29;41.03;101316.94;7399255;19;1592;-66
2023/09/09 06:35:02;;;;;;;;;;;;;;;24.26;41.28;101309.16;7400162;19;1771;-66
2023/09/09 06:37:33;;;;;;;;;;;;;;;24.31;41.37;101301.41;7399469;19;1247;-65
2023/09/09 06:40:02;;;;;;;;;;;;;;;24.36;41.24;101321.56;7398231;19;1952;-64
2023/09/09 06:42:30;;;;;;;;;;;;;;;24.37;41.22;101322.41;7398980;19;1732;-64
2023/09/09 06:44:58;;;;;;;;;;;;;;;24.40;41.29;101301.31;7399187;19;1778;-64
2023/09/09 06:47:26;;;;;;;;;;;;;;;24.41;41.15;101305.72;7396699;19;1545;-64
2023/09/09 06:49:55;;;;;;;;;;;;;;;24.51;41.37;101311.06;7398865;19;1540;-66
2023/09/09 06:52:23;;;;;;;;;;;;;;;24.59;41.04;101299.44;7397854;19;1811;-64
2023/09/09 06:54:54;;;;;;;;;;;;;;;24.72;40.95;101315.25;7397953;19;1746;-65
2023/09/09 06:57:22;;;;;;;;;;;;;;;24.59;41.06;101300.28;7396557;19;1795;-66
2023/09/09 06:59:50;;;;;;;;;;;;;;;24.55;41.33;101323.25;7394022;19;1859;-66
2023/09/09 07:02:19;;;;;;;;;;;;;;;24.78;41.10;101303.78;7383476;19;1700;-65
2023/09/09 07:04:47;;;;;;;;;;;;;;;24.77;41.29;101304.78;7396442;19;1454;-67
2023/09/09 07:07:15;;;;;;;;;;;;;;;24.70;41.40;101306.44;7398705;19;1814;-65
2023/09/09 07:09:43;;;;;;;;;;;;;;;24.61;41.49;101310.94;7396869;19;1814;-65
2023/09/09 07:12:14;;;;;;;;;;;;;;;24.58;41.52;101303.16;7396448;19;1406;-65
2023/09/09 07:14:43;;;;;;;;;;;;;;;24.68;41.55;101308.47;7395423;19;1692;-65
2023/09/09 07:17:11;;;;;;;;;;;;;;;24.68;41.77;101311.16;7396887;19;1702;-64
2023/09/09 07:19:40;;;;;;;;;;;;;;;24.39;42.05;101299.63;7396945;19;1719;-65
2023/09/09 07:22:08;;;;;;;;;;;;;;;24.42;41.94;101311.97;7394404;19;1847;-65
2023/09/09 07:24:36;;;;;;;;;;;;;;;24.54;41.97;101302.63;7397177;19;1708;-65
2023/09/09 07:27:05;;;;;;;;;;;;;;;24.54;41.88;101313.44;7396410;19;1703;-65
2023/09/09 07:29:36;;;;;;;;;;;;;;;24.52;41.87;101299.22;7397184;19;1509;-65
2023/09/09 07:32:05;;;;;;;;;;;;;;;24.53;41.95;101297.38;7396540;19;1478;-65
2023/09/09 07:34:34;;;;;;;;;;;;;;;24.54;41.90;101299.06;7397765;19;1525;-65
2023/09/09 07:37:02;;;;;;;;;;;;;;;24.64;42.07;101288.16;7397640;19;1777;-65
2023/09/09 07:39:30;;;;;;;;;;;;;;;24.58;42.02;101292.34;7397476;19;1696;-65
2023/09/09 07:41:59;;;;;;;;;;;;;;;24.70;41.91;101295.63;7394923;19;1873;-65
2023/09/09 07:44:27;;;;;;;;;;;;;;;24.72;42.00;101301.72;7397002;19;1368;-65
2023/09/09 07:46:59;;;;;;;;;;;;;;;24.69;41.87;101291.19;7396018;19;1706;-65
2023/09/09 07:49:27;;;;;;;;;;;;;;;24.70;42.21;101301.03;7397449;19;1472;-65
2023/09/09 07:51:55;;;;;;;;;;;;;;;24.77;42.00;101275.00;7395985;19;1800;-64
2023/09/09 07:54:24;;;;;;;;;;;;;;;24.77;42.04;101275.88;7395427;19;1810;-64
2023/09/09 07:56:52;;;;;;;;;;;;;;;24.65;42.43;101287.13;7393425;19;1813;-67
2023/09/09 07:59:20;;;;;;;;;;;;;;;24.76;42.20;101284.16;7395061;19;1616;-66
2023/09/09 08:01:48;;;;;;;;;;;;;;;24.57;42.54;101269.88;7383044;19;1854;-66
2023/09/09 08:04:19;;;;;;;;;;;;;;;24.51;42.95;101292.13;7395679;19;1681;-66
2023/09/09 08:06:49;;;;;;;;;;;;;;;24.50;42.80;101287.72;7396530;19;1727;-66
2023/09/09 08:09:17;;;;;;;;;;;;;;;24.48;42.98;101287.00;7396051;19;1541;-65
2023/09/09 08:11:45;;;;;;;;;;;;;;;24.49;43.07;101291.41;7395272;19;1711;-64
2023/09/09 08:14:13;;;;;;;;;;;;;;;24.52;43.16;101288.41;7397008;19;1735;-64
2023/09/09 08:16:42;;;;;;;;;;;;;;;24.50;43.10;101284.16;7393913;19;1719;-65
2023/09/09 08:19:10;;;;;;;;;;;;;;;24.42;43.46;101274.97;7395146;19;1738;-65
2023/09/09 08:21:41;;;;;;;;;;;;;;;24.42;43.48;101272.25;7394582;19;1841;-65
2023/09/09 08:24:09;;;;;;;;;;;;;;;24.44;43.41;101280.22;7395242;19;1782;-65
2023/09/09 08:26:37;;;;;;;;;;;;;;;24.45;43.52;101294.56;7393701;19;1811;-65
2023/09/09 08:29:06;;;;;;;;;;;;;;;24.41;43.54;101270.59;7395893;19;1424;-65
2023/09/09 08:31:35;;;;;;;;;;;;;;;24.41;43.43;101261.59;7395939;19;1459;-65
2023/09/09 08:34:03;;;;;;;;;;;;;;;24.43;43.67;101270.41;7396144;19;1917;-65
2023/09/09 08:36:31;;;;;;;;;;;;;;;24.39;43.79;101260.91;7395445;19;1517;-65
2023/09/09 08:39:02;;;;;;;;;;;;;;;24.42;43.60;101257.91;7395884;19;1786;-65
2023/09/09 08:41:45;;;;;;;;;;;;;;;24.44;43.54;101264.00;7394426;19;1849;-65
2023/09/09 08:44:17;;;;;;;;;;;;;;;24.42;43.85;101255.19;7395611;19;1782;-65
2023/09/09 08:46:45;;;;;;;;;;;;;;;24.44;43.65;101257.75;7398151;19;1600;-64
2023/09/09 08:49:15;;;;;;;;;;;;;;;24.44;43.83;101268.56;7403426;19;1714;-64
2023/09/09 08:51:48;;;;;;;;;;;;;;;24.44;43.73;101263.16;7399819;19;1506;-65
2023/09/09 08:54:19;;;;;;;;;;;;;;;24.42;44.11;101253.34;7403327;19;1687;-65
2023/09/09 08:56:47;;;;;;;;;;;;;;;24.43;43.91;101251.47;7399818;19;1506;-65
2023/09/09 08:59:16;;;;;;;;;;;;;;;24.44;43.93;101261.28;7401545;19;1514;-65
2023/09/09 09:01:45;;;;;;;;;;;;;;;24.45;44.20;101264.84;7399778;19;1838;-65
2023/09/09 09:04:14;;;;;;;;;;;;;;;24.49;44.11;101260.81;7390843;19;1454;-65
2023/09/09 09:06:42;;;;;;;;;;;;;;;24.43;44.01;101254.19;7399060;19;1790;-65
2023/09/09 09:09:11;;;;;;;;;;;;;;;24.45;44.12;101243.22;7402517;19;1734;-65
2023/09/09 09:11:42;;;;;;;;;;;;;;;24.46;43.99;101248.47;7403093;19;1708;-65
2023/09/09 09:14:10;;;;;;;;;;;;;;;24.46;44.25;101251.16;7401580;19;1476;-64
2023/09/09 09:16:40;;;;;;;;;;;;;;;24.47;43.99;101235.78;7397281;19;1802;-64
2023/09/09 09:19:09;;;;;;;;;;;;;;;24.49;44.11;101248.16;7400480;19;1396;-64
2023/09/09 09:21:38;;;;;;;;;;;;;;;24.46;44.11;101245.75;7398802;19;1855;-65
2023/09/09 09:24:06;;;;;;;;;;;;;;;24.50;44.17;101251.72;7398801;19;1964;-65
2023/09/09 09:26:35;;;;;;;;;;;;;;;24.48;44.29;101238.34;7401906;19;1478;-65
2023/09/09 09:29:07;;;;;;;;;;;;;;;24.50;44.25;101225.53;7402168;19;1767;-64
2023/09/09 09:31:35;;;;;;;;;;;;;;;24.49;44.34;101234.66;7401402;19;1909;-65
2023/09/09 09:34:03;;;;;;;;;;;;;;;24.50;44.49;101233.66;7398589;19;1597;-65
2023/09/09 09:36:32;;;;;;;;;;;;;;;24.53;44.26;101236.03;7400482;19;1585;-64
2023/09/09 09:39:00;;;;;;;;;;;;;;;24.54;44.29;101235.03;7400517;19;1410;-66
2023/09/09 09:41:28;;;;;;;;;;;;;;;24.52;44.48;101228.94;7400574;19;1857;-66
2023/09/09 09:43:56;;;;;;;;;;;;;;;24.54;44.53;101226.06;7399312;19;1468;-66
2023/09/09 09:46:27;;;;;;;;;;;;;;;24.55;44.65;101233.16;7400614;19;1785;-66
2023/09/09 09:48:56;;;;;;;;;;;;;;;24.55;44.42;101217.81;7400862;19;1522;-66
2023/09/09 09:51:24;;;;;;;;;;;;;;;24.53;44.64;101225.22;7400634;19;1850;-63
2023/09/09 09:53:53;;;;;;;;;;;;;;;24.55;44.59;101214.22;7400352;19;1779;-65
2023/09/09 09:56:22;;;;;;;;;;;;;;;24.53;44.54;101208.13;7398988;19;1770;-65
2023/09/09 09:58:51;;;;;;;;;;;;;;;24.55;44.78;101211.53;7399686;19;1549;-65
2023/09/09 10:01:19;;;;;;;;;;;;;;;24.56;44.62;101218.66;7398456;19;1857;-65
2023/09/09 10:03:55;;;;;;;;;;;;;;;24.53;44.64;101200.91;7387588;19;1467;-65
2023/09/09 10:06:26;;;;;;;;;;;;;;;24.52;44.87;101193.78;7399478;19;1413;-65
2023/09/09 10:08:59;;;;;;;;;;;;;;;24.55;44.75;101198.88;7397632;19;1643;-65
2023/09/09 10:11:30;;;;;;;;;;;;;;;24.57;44.78;101204.09;7400432;19;1841;-65
2023/09/09 10:14:04;;;;;;;;;;;;;;;24.53;44.73;101206.31;7399373;19;1468;-65
2023/09/09 10:16:33;;;;;;;;;;;;;;;24.58;44.82;101190.44;7400031;19;1759;-65
2023/09/09 10:19:04;;;;;;;;;;;;;;;24.57;44.88;101190.56;7400650;19;1778;-65
2023/09/09 10:21:34;;;;;;;;;;;;;;;24.57;44.90;101180.63;7399930;19;1845;-65
2023/09/09 10:24:03;;;;;;;;;;;;;;;24.60;45.02;101210.03;7399726;19;1846;-65
2023/09/09 10:26:32;;;;;;;;;;;;;;;24.56;44.90;101184.34;7399530;19;1818;-65
2023/09/09 10:29:01;;;;;;;;;;;;;;;24.54;45.17;101177.41;7399130;19;1893;-64
2023/09/09 10:31:31;;;;;;;;;;;;;;;24.55;44.96;101173.69;7399399;19;1786;-66
2023/09/09 10:34:01;;;;;;;;;;;;;;;24.58;45.23;101171.50;7398259;19;1703;-66
2023/09/09 10:36:33;;;;;;;;;;;;;;;24.55;45.25;101174.53;7398610;19;1803;-64
2023/09/09 10:39:02;;;;;;;;;;;;;;;24.57;45.10;101166.25;7398253;19;1699;-64
2023/09/09 10:41:30;;;;;;;;;;;;;;;24.57;45.34;101163.53;7397181;19;1845;-65
2023/09/09 10:43:59;;;;;;;;;;;;;;;24.56;45.25;101165.41;7397648;19;1763;-64
2023/09/09 10:46:34;;;;;;;;;;;;;;;24.51;45.29;101153.38;7398929;19;1493;-64
2023/09/09 10:49:03;;;;;;;;;;;;;;;24.63;45.32;101156.63;7398207;19;1373;-64
2023/09/09 10:51:45;;;;;;;;;;;;;;;24.54;45.21;101144.97;7398036;19;1729;-65
2023/09/09 10:54:15;;;;;;;;;;;;;;;24.59;45.46;101156.13;7397966;19;1756;-65
2023/09/09 10:56:46;;;;;;;;;;;;;;;24.60;45.48;101150.56;7396352;19;1684;-65
2023/09/09 10:59:17;;;;;;;;;;;;;;;24.55;45.43;101147.50;7397492;19;1822;-65
2023/09/09 11:01:45;;;;;;;;;;;;;;;24.57;45.48;101140.06;7396661;19;1879;-65
2023/09/09 11:04:23;;;;;;;;;;;;;;;24.61;45.51;101137.88;7386291;19;1747;-66
2023/09/09 11:07:07;;;;;;;;;;;;;;;24.61;45.36;101136.03;7397404;19;1805;-64
2023/09/09 11:09:35;;;;;;;;;;;;;;;24.61;45.38;101130.63;7396542;19;1411;-65
2023/09/09 11:12:13;;;;;;;;;;;;;;;24.64;45.28;101128.59;7398240;19;1801;-64
2023/09/09 11:14:43;;;;;;;;;;;;;;;24.61;45.29;101129.75;7398941;19;1340;-65
2023/09/09 11:17:13;;;;;;;;;;;;;;;24.63;45.48;101127.75;7397111;19;1438;-64
2023/09/09 11:19:42;;;;;;;;;;;;;;;24.70;45.67;101122.53;7396561;19;1490;-64
2023/09/09 11:22:14;;;;;;;;;;;;;;;24.61;45.38;101111.69;7395667;19;1855;-65
2023/09/09 11:24:42;;;;;;;;;;;;;;;24.64;45.43;101126.75;7396785;19;1437;-65
2023/09/09 11:27:12;;;;;;;;;;;;;;;24.66;45.49;101116.59;7397359;19;1600;-66
2023/09/09 11:29:40;;;;;;;;;;;;;;;24.66;45.57;101115.75;7396749;19;1834;-65
2023/09/09 11:32:10;;;;;;;;;;;;;;;24.69;45.61;101115.41;7397105;19;1678;-65
2023/09/09 11:34:39;;;;;;;;;;;;;;;24.65;45.52;101095.13;7397252;19;1838;-65
2023/09/09 11:37:09;;;;;;;;;;;;;;;24.68;45.73;101113.75;7397205;19;1363;-65
2023/09/09 11:39:44;;;;;;;;;;;;;;;24.67;45.60;101112.91;7397087;19;1850;-65
2023/09/09 11:42:12;;;;;;;;;;;;;;;24.68;45.73;101094.81;7396098;19;1990;-65
2023/09/09 11:44:42;;;;;;;;;;;;;;;24.69;45.63;101093.78;7395962;19;1785;-65
2023/09/09 11:47:11;;;;;;;;;;;;;;;24.68;45.72;101086.69;7396315;19;1498;-65
2023/09/09 11:49:40;;;;;;;;;;;;;;;24.68;45.79;101092.09;7396276;19;1596;-65
2023/09/09 11:52:09;;;;;;;;;;;;;;;24.68;45.83;101086.69;7393771;19;1876;-65
2023/09/09 11:54:37;;;;;;;;;;;;;;;24.68;45.65;101082.13;7396014;19;1731;-64
2023/09/09 11:57:08;;;;;;;;;;;;;;;24.72;45.97;101067.25;7394070;19;1427;-64
2023/09/09 11:59:45;;;;;;;;;;;;;;;24.69;45.72;101077.56;7396100;19;1767;-64
2023/09/09 12:02:19;;;;;;;;;;;;;;;24.66;45.92;101070.63;7395196;19;1863;-64
2023/09/09 12:04:57;;;;;;;;;;;;;;;24.70;45.87;101073.84;7384799;19;1798;-64
2023/09/09 12:07:28;;;;;;;;;;;;;;;24.70;45.81;101066.59;7396928;19;1645;-64
2023/09/09 12:09:56;;;;;;;;;;;;;;;24.70;45.96;101063.88;7396082;19;1500;-64
2023/09/09 12:12:27;;;;;;;;;;;;;;;24.74;45.71;101080.63;7396186;19;1390;-64
2023/09/09 12:14:58;;;;;;;;;;;;;;;24.74;45.84;101064.41;7395969;19;1415;-64
2023/09/09 12:17:27;;;;;;;;;;;;;;;24.74;45.75;101064.41;7396329;19;1806;-64
2023/09/09 12:19:53;;;;;;;;;;;;;;;24.71;45.72;101057.47;7395622;19;2178;-64
2023/09/09 12:22:29;;;;;;;;;;;;;;;24.72;45.89;101066.41;7399143;19;1846;-64
2023/09/09 12:24:57;;;;;;;;;;;;;;;24.74;45.87;101065.22;7401950;19;1798;-64
2023/09/09 12:27:41;;;;;;;;;;;;;;;24.71;45.86;101060.19;7402500;19;1707;-64
2023/09/09 12:30:10;;;;;;;;;;;;;;;24.76;45.81;101057.78;7402215;19;1707;-65
2023/09/09 12:32:38;;;;;;;;;;;;;;;24.77;45.68;101058.63;7402303;19;1470;-64
2023/09/09 12:35:11;;;;;;;;;;;;;;;24.78;45.74;101054.94;7402384;19;1739;-64
2023/09/09 12:37:39;;;;;;;;;;;;;;;24.78;45.88;101055.78;7403237;19;1580;-65
2023/09/09 12:40:08;;;;;;;;;;;;;;;24.77;45.96;101053.22;7403591;19;1699;-67
2023/09/09 12:42:39;;;;;;;;;;;;;;;24.75;45.94;101057.97;7401649;19;1935;-65
2023/09/09 12:45:12;;;;;;;;;;;;;;;24.74;46.02;101049.00;7403272;19;1801;-65
2023/09/09 12:47:40;;;;;;;;;;;;;;;24.78;45.74;101054.94;7401448;19;1572;-64
2023/09/09 12:50:09;;;;;;;;;;;;;;;24.75;45.81;101049.84;7402841;19;1731;-64
2023/09/09 12:52:37;;;;;;;;;;;;;;;24.75;45.94;101044.44;7399780;19;1826;-64
2023/09/09 12:55:06;;;;;;;;;;;;;;;24.75;45.93;101039.03;7400687;19;1735;-64
2023/09/09 12:57:34;;;;;;;;;;;;;;;24.75;46.13;101037.19;7402459;19;1367;-65
2023/09/09 13:00:06;;;;;;;;;;;;;;;24.77;45.88;101039.69;7401657;19;1586;-65
2023/09/09 13:02:34;;;;;;;;;;;;;;;24.77;46.03;101042.41;7400278;19;1870;-64
2023/09/09 13:05:02;;;;;;;;;;;;;;;24.77;45.92;101032.47;7391184;19;1585;-65
2023/09/09 13:07:31;;;;;;;;;;;;;;;24.75;45.93;101023.66;7401911;19;1727;-64
2023/09/09 13:09:59;;;;;;;;;;;;;;;24.78;45.95;101036.84;7402234;19;1464;-64
2023/09/09 13:12:27;;;;;;;;;;;;;;;24.79;45.95;101029.59;7401656;19;1798;-64